Shap, United Kingdom
Current Conditions -  °F | °C
As of 4:50 PM on Friday 19 Dec 2014 (Local Time) from EGOM Reporting Station
Broken Clouds Broken Clouds  
Wind Chill: 25°   Ceiling: 3200
Heat Index: 36°   Visibility: 6mi
Dew Point: 36°   Wind: 20mph
Humidity: 100%   Direction: 250°WSW
Pressure: 29.77"   Gusts: NA
Location:  54.5°N, 2.68°W
Report Text: EGOM 191650Z AUTO 25017KT 9999 FEW009/// BKN032/// 02/02 Q1008 RERA
Loading
Personal Weather Stations






























Interactive Weather Map New forecast layout! Learn more

10-Day Weather Forecast

Advertisements
Track Severe Weather on mobile